Time;durP1;ratioP1;P1;durP2;ratioP2;P2;SDS_P1;SDS_P2;PMS_P1;PMS_P2;Temp;Humidity;BMP_temperature;BMP_pressure;BME280_temperature;BME280_humidity;BME280_pressure;Samples;Min_cycle;Max_cycle;Signal;HPM_P1;HPM_P2
2022/02/05 00:00:08;;;;;;;1.80;1.43;;;6.80;99.90;;;;;;5069893;28;20184;-58
2022/02/05 00:01:40;;;;;;;1.23;1.10;;;6.90;99.90;;;;;;5060603;28;20209;-57
2022/02/05 00:04:10;;;;;;;1.48;1.33;;;7.00;99.90;;;;;;5071031;28;20767;-57
2022/02/05 00:06:39;;;;;;;1.33;1.23;;;7.00;99.90;;;;;;5065877;28;20280;-57
2022/02/05 00:09:19;;;;;;;1.30;1.20;;;6.70;99.90;;;;;;5067419;28;20196;-59
2022/02/05 00:41:31;;;;;;;1.80;1.70;;;6.40;99.90;;;;;;5064868;28;20174;-59
2022/02/05 00:44:00;;;;;;;1.30;1.17;;;6.20;99.90;;;;;;5068672;28;20233;-58
2022/02/05 00:46:30;;;;;;;1.92;1.20;;;6.10;99.90;;;;;;5067439;28;20187;-59
2022/02/05 00:48:56;;;;;;;1.30;1.20;;;6.00;99.90;;;;;;5056527;28;20272;-59
2022/02/05 00:51:33;;;;;;;2.30;1.47;;;5.80;99.90;;;;;;5069228;28;20219;-58
2022/02/05 00:54:08;;;;;;;1.52;1.10;;;5.70;99.90;;;;;;5071399;28;20206;-58
2022/02/05 00:56:50;;;;;;;2.67;1.67;;;5.70;99.90;;;;;;5061737;28;20280;-60
2022/02/05 00:59:19;;;;;;;1.73;1.27;;;6.00;99.90;;;;;;5064828;28;20624;-60
2022/02/05 01:01:45;;;;;;;1.42;1.20;;;5.40;99.90;;;;;;5064958;28;20195;-59
2022/02/05 01:04:11;;;;;;;1.70;1.20;;;5.50;99.90;;;;;;5063463;28;20199;-60
2022/02/05 01:06:38;;;;;;;2.07;1.20;;;5.30;99.90;;;;;;5068380;28;20198;-58
2022/02/05 01:09:08;;;;;;;1.35;1.20;;;4.70;99.90;;;;;;5063414;28;20539;-59
2022/02/05 01:11:34;;;;;;;5.00;1.45;;;5.30;99.90;;;;;;5063959;28;20194;-58
2022/02/05 01:14:02;;;;;;;1.75;1.10;;;5.30;99.90;;;;;;5065386;28;20224;-58
2022/02/05 01:16:51;;;;;;;1.33;1.17;;;4.90;99.90;;;;;;5070116;28;20286;-58
2022/02/05 01:19:40;;;;;;;2.38;1.45;;;4.90;99.90;;;;;;5064475;28;20185;-58
2022/02/05 01:22:04;;;;;;;1.92;1.50;;;5.30;99.90;;;;;;5064764;28;20194;-58
2022/02/05 01:24:31;;;;;;;2.35;1.45;;;4.70;99.90;;;;;;5064792;28;20208;-60
2022/02/05 01:27:08;;;;;;;2.67;1.27;;;4.60;99.90;;;;;;5060508;28;20262;-58
2022/02/05 01:32:11;;;;;;;1.17;1.08;;;4.00;99.90;;;;;;5062923;28;20539;-57
2022/02/05 01:34:48;;;;;;;3.25;1.40;;;4.60;99.90;;;;;;5070138;28;20202;-58
2022/02/05 01:53:12;;;;;;;1.20;1.10;;;4.10;99.90;;;;;;5068476;28;20555;-57
2022/02/05 02:16:57;;;;;;;2.85;1.48;;;4.00;99.90;;;;;;5065313;28;20306;-58
2022/02/05 02:21:58;;;;;;;2.78;1.60;;;4.10;99.90;;;;;;5067627;28;20177;-57
2022/02/05 02:27:23;;;;;;;5.00;1.45;;;3.40;99.90;;;;;;5059435;28;20196;-58
2022/02/05 02:32:18;;;;;;;1.60;1.50;;;3.60;99.90;;;;;;5060903;28;20722;-59
2022/02/05 02:34:49;;;;;;;2.03;1.92;;;3.60;99.90;;;;;;5061536;28;20247;-59
2022/02/05 02:37:21;;;;;;;4.13;1.48;;;3.70;99.90;;;;;;5066528;28;20182;-58
2022/02/05 02:42:34;;;;;;;2.75;1.77;;;3.70;99.90;;;;;;5059963;28;20323;-58
2022/02/05 02:45:00;;;;;;;2.28;1.73;;;3.50;99.90;;;;;;5064079;28;20197;-59
2022/02/05 02:47:26;;;;;;;2.60;1.40;;;2.90;99.90;;;;;;5063654;28;20204;-57
2022/02/05 02:58:00;;;;;;;5.72;3.35;;;3.70;99.90;;;;;;5060423;28;20946;-58
2022/02/05 03:00:26;;;;;;;2.20;1.70;;;3.60;99.90;;;;;;5070338;28;20185;-57
2022/02/05 03:02:54;;;;;;;2.33;1.70;;;4.00;99.90;;;;;;5067077;28;20277;-57
2022/02/05 03:05:20;;;;;;;5.45;3.67;;;3.50;99.90;;;;;;5065670;28;20241;-59
2022/02/05 03:07:46;;;;;;;3.03;1.58;;;2.90;99.90;;;;;;5064827;28;20721;-59
2022/02/05 03:10:12;;;;;;;1.77;1.67;;;3.50;99.90;;;;;;5065003;28;20193;-58
2022/02/05 03:12:37;;;;;;;2.40;1.77;;;3.30;99.90;;;;;;5064787;28;20193;-58
2022/02/05 03:15:05;;;;;;;2.47;1.97;;;3.40;99.90;;;;;;5068331;28;20988;-59
2022/02/05 03:18:07;;;;;;;2.47;1.70;;;3.20;99.90;;;;;;5057485;28;20495;-59
2022/02/05 03:20:22;;;;;;;2.55;1.60;;;3.40;99.90;;;;;;5068856;28;20189;-59
2022/02/05 03:22:48;;;;;;;2.90;2.10;;;3.50;99.90;;;;;;5059873;28;20324;-57
2022/02/05 03:25:13;;;;;;;3.43;2.17;;;3.30;99.90;;;;;;5060147;28;20252;-58
2022/02/05 03:27:39;;;;;;;3.90;1.87;;;3.50;99.90;;;;;;5064991;28;20601;-57
2022/02/05 03:30:06;;;;;;;2.73;2.03;;;3.30;99.90;;;;;;5070012;28;20181;-58
2022/02/05 03:32:31;;;;;;;2.75;2.08;;;3.50;99.90;;;;;;5062400;28;20189;-57
2022/02/05 03:34:57;;;;;;;4.40;1.87;;;3.20;99.90;;;;;;5069374;28;20223;-59
2022/02/05 03:37:23;;;;;;;2.70;1.90;;;2.70;99.90;;;;;;5067895;28;20178;-57
2022/02/05 03:39:48;;;;;;;2.83;1.77;;;3.50;99.90;;;;;;5067245;28;20188;-58
2022/02/05 03:42:14;;;;;;;4.73;2.60;;;3.30;99.90;;;;;;5062958;28;20599;-57
2022/02/05 03:44:40;;;;;;;2.77;2.07;;;3.50;99.90;;;;;;5053219;28;20776;-58
2022/02/05 03:47:06;;;;;;;2.20;2.00;;;3.30;99.90;;;;;;5062050;28;20647;-57
2022/02/05 03:49:32;;;;;;;2.40;1.98;;;3.40;99.90;;;;;;5065575;28;20237;-58
2022/02/05 03:51:57;;;;;;;2.40;2.20;;;3.50;99.90;;;;;;5069298;28;20300;-57
2022/02/05 03:54:29;;;;;;;3.40;2.23;;;3.00;99.90;;;;;;5057663;28;20457;-58
2022/02/05 03:56:54;;;;;;;2.20;1.90;;;3.40;99.90;;;;;;5058109;28;20236;-58
2022/02/05 03:59:20;;;;;;;4.27;2.50;;;3.60;99.90;;;;;;5066278;28;20221;-59
2022/02/05 04:01:46;;;;;;;2.40;1.87;;;3.50;99.90;;;;;;5065108;28;20186;-58
2022/02/05 04:04:12;;;;;;;3.85;2.25;;;2.90;99.90;;;;;;5053954;28;20213;-58
2022/02/05 04:06:37;;;;;;;2.40;2.00;;;3.30;99.90;;;;;;5060490;28;20659;-57
2022/02/05 04:09:09;;;;;;;4.50;4.10;;;3.30;99.90;;;;;;5061535;28;20271;-59
2022/02/05 04:11:56;;;;;;;6.50;1.90;;;3.40;99.90;;;;;;5056507;28;20174;-59
2022/02/05 04:17:06;;;;;;;3.53;2.42;;;3.10;99.90;;;;;;5062117;28;20212;-58
2022/02/05 04:19:32;;;;;;;3.53;1.90;;;3.00;99.90;;;;;;5082536;28;20654;-59
2022/02/05 04:21:58;;;;;;;3.43;2.00;;;3.20;99.90;;;;;;5067790;28;20177;-58
2022/02/05 04:24:24;;;;;;;4.80;2.50;;;2.40;99.90;;;;;;5068540;28;20291;-58
2022/02/05 04:26:49;;;;;;;2.65;2.45;;;2.90;99.90;;;;;;5060611;28;20913;-57
2022/02/05 04:29:15;;;;;;;2.47;2.27;;;2.80;99.90;;;;;;5069958;28;20276;-59
2022/02/05 04:31:41;;;;;;;5.83;2.23;;;3.40;99.90;;;;;;5066210;28;20629;-57
2022/02/05 04:34:07;;;;;;;3.97;2.35;;;2.80;99.90;;;;;;5071289;28;20216;-58
2022/02/05 04:36:37;;;;;;;3.67;2.10;;;2.70;99.90;;;;;;5070713;28;20216;-59
2022/02/05 04:39:11;;;;;;;3.75;2.20;;;3.00;99.90;;;;;;5068362;28;20199;-58
2022/02/05 04:41:53;;;;;;;2.65;2.35;;;3.30;99.90;;;;;;5064522;28;20176;-58
2022/02/05 04:54:26;;;;;;;3.23;2.03;;;3.60;99.90;;;;;;5069396;28;20684;-59
2022/02/05 05:20:18;;;;;;;3.15;2.08;;;4.50;99.90;;;;;;5071666;28;20284;-57
2022/02/05 05:22:44;;;;;;;2.27;2.07;;;3.70;99.90;;;;;;5070630;28;20272;-57
2022/02/05 05:25:09;;;;;;;2.30;2.10;;;3.70;99.90;;;;;;5068761;28;20294;-57
2022/02/05 05:27:37;;;;;;;3.63;2.67;;;4.00;99.90;;;;;;5062923;28;20189;-58
2022/02/05 05:30:04;;;;;;;3.95;2.38;;;4.00;99.90;;;;;;5066511;28;20193;-58
2022/02/05 05:32:29;;;;;;;2.95;2.20;;;4.30;99.90;;;;;;5068824;28;20198;-57
2022/02/05 05:34:55;;;;;;;4.37;2.60;;;3.80;99.90;;;;;;5068966;28;20209;-58
2022/02/05 05:37:21;;;;;;;4.77;2.13;;;4.30;99.90;;;;;;5070584;28;20177;-58
2022/02/05 05:39:49;;;;;;;4.33;2.10;;;4.20;99.90;;;;;;5064186;28;20190;-59
2022/02/05 05:42:20;;;;;;;3.03;2.67;;;4.40;99.90;;;;;;5066126;28;20582;-58
2022/02/05 05:52:23;;;;;;;3.83;2.10;;;4.00;99.90;;;;;;5068801;28;20184;-57
2022/02/05 05:54:49;;;;;;;2.83;2.10;;;4.00;99.90;;;;;;5068739;28;20202;-58
2022/02/05 05:57:15;;;;;;;2.50;2.30;;;4.70;99.90;;;;;;5068929;28;20231;-57
2022/02/05 05:59:42;;;;;;;2.45;2.08;;;4.60;99.90;;;;;;5069261;28;20197;-59
2022/02/05 06:02:09;;;;;;;4.25;3.15;;;4.90;99.90;;;;;;5065244;28;20243;-59
2022/02/05 06:04:34;;;;;;;2.65;2.10;;;4.50;99.90;;;;;;5064957;28;20223;-57
2022/02/05 06:07:00;;;;;;;3.73;2.37;;;4.40;99.90;;;;;;5062530;28;20187;-58
2022/02/05 06:09:26;;;;;;;2.77;2.30;;;4.50;99.90;;;;;;5068667;28;20177;-57
2022/02/05 06:11:51;;;;;;;2.77;2.27;;;4.30;99.90;;;;;;5065205;28;20678;-59
2022/02/05 06:14:22;;;;;;;3.10;2.60;;;4.60;99.90;;;;;;5064154;28;20471;-58
2022/02/05 06:16:52;;;;;;;2.95;2.25;;;4.40;99.90;;;;;;5067509;28;20210;-59
2022/02/05 06:19:20;;;;;;;3.85;1.90;;;4.30;99.90;;;;;;5062102;28;20279;-57
2022/02/05 06:21:46;;;;;;;2.17;1.98;;;4.50;99.90;;;;;;5067073;28;20194;-58
2022/02/05 06:24:12;;;;;;;3.53;2.55;;;4.60;99.90;;;;;;5068585;28;20213;-57
2022/02/05 06:26:37;;;;;;;7.30;2.63;;;4.60;99.90;;;;;;5063002;28;20210;-58
2022/02/05 06:29:03;;;;;;;4.43;2.10;;;4.50;99.90;;;;;;5069132;28;20666;-58
2022/02/05 06:31:29;;;;;;;2.43;2.23;;;4.40;99.90;;;;;;5069403;28;20296;-59
2022/02/05 06:33:54;;;;;;;2.30;1.90;;;4.60;99.90;;;;;;5065119;28;20586;-57
2022/02/05 06:36:20;;;;;;;3.03;2.33;;;4.80;99.90;;;;;;5064991;28;20614;-56
2022/02/05 06:38:47;;;;;;;3.10;2.70;;;4.90;99.90;;;;;;5068102;28;20189;-58
2022/02/05 06:41:13;;;;;;;2.83;2.20;;;4.70;99.90;;;;;;5065750;28;20192;-57
2022/02/05 06:43:38;;;;;;;3.25;2.42;;;5.10;99.90;;;;;;5050840;28;20198;-59
2022/02/05 06:46:04;;;;;;;3.13;2.23;;;4.60;99.90;;;;;;5055619;28;22329;-58
2022/02/05 06:48:30;;;;;;;5.67;2.33;;;5.10;99.90;;;;;;5056836;28;20200;-59
2022/02/05 06:50:55;;;;;;;6.73;2.70;;;4.50;99.90;;;;;;5072171;28;20671;-61
2022/02/05 06:53:21;;;;;;;7.00;2.70;;;4.70;99.90;;;;;;5065492;28;20182;-60
2022/02/05 06:55:47;;;;;;;3.43;2.90;;;5.00;99.90;;;;;;5068482;28;20201;-59
2022/02/05 06:58:13;;;;;;;2.63;2.43;;;4.40;99.90;;;;;;5049093;28;20181;-58
2022/02/05 07:00:39;;;;;;;3.93;2.33;;;4.50;99.90;;;;;;5048644;28;20444;-59
2022/02/05 07:03:05;;;;;;;3.00;2.30;;;4.80;99.90;;;;;;5060495;28;20439;-58
2022/02/05 07:05:30;;;;;;;3.57;2.40;;;4.50;99.90;;;;;;5059114;28;20554;-58
2022/02/05 07:07:56;;;;;;;4.77;2.60;;;5.00;99.90;;;;;;5065787;28;20520;-58
2022/02/05 07:10:22;;;;;;;2.65;2.30;;;4.10;99.90;;;;;;5062307;28;20199;-57
2022/02/05 07:15:24;;;;;;;2.88;2.58;;;4.30;99.90;;;;;;5052688;28;20969;-56
2022/02/05 07:18:16;;;;;;;3.15;2.28;;;3.90;99.90;;;;;;5054275;28;20192;-56
2022/02/05 07:20:43;;;;;;;3.17;2.13;;;4.50;99.90;;;;;;5064370;28;20198;-56
2022/02/05 07:31:21;;;;;;;4.35;2.90;;;4.70;99.90;;;;;;5065629;28;20199;-57
2022/02/05 07:33:48;;;;;;;2.40;2.20;;;4.10;99.90;;;;;;5051217;28;20201;-59
2022/02/05 07:36:16;;;;;;;5.00;2.85;;;4.80;99.90;;;;;;5063258;28;20203;-59
2022/02/05 07:38:43;;;;;;;5.30;2.42;;;4.70;99.90;;;;;;5055915;28;20711;-58
2022/02/05 07:41:09;;;;;;;3.22;2.50;;;4.90;99.90;;;;;;5062801;28;20268;-57
2022/02/05 07:43:35;;;;;;;2.33;2.13;;;5.30;99.90;;;;;;5063869;28;20314;-57
2022/02/05 07:46:12;;;;;;;3.97;3.13;;;4.80;99.90;;;;;;5060857;28;20182;-56
2022/02/05 07:48:39;;;;;;;4.47;2.75;;;5.10;99.90;;;;;;5042730;28;20189;-56
2022/02/05 07:51:05;;;;;;;2.63;2.20;;;4.90;99.90;;;;;;5057780;28;20243;-57
2022/02/05 07:53:32;;;;;;;4.53;3.15;;;4.60;99.90;;;;;;5066713;28;20224;-55
2022/02/05 07:55:58;;;;;;;4.20;2.70;;;4.30;99.90;;;;;;5062241;28;20208;-56
2022/02/05 07:58:24;;;;;;;2.50;2.30;;;4.70;99.90;;;;;;5057509;28;20700;-59
2022/02/05 08:00:50;;;;;;;7.55;2.42;;;4.80;99.90;;;;;;5065647;28;20181;-58
2022/02/05 08:03:16;;;;;;;3.08;2.70;;;4.10;99.90;;;;;;5053745;28;20178;-57
2022/02/05 08:05:42;;;;;;;3.77;2.20;;;4.80;99.90;;;;;;5061134;28;20615;-59
2022/02/05 08:08:12;;;;;;;2.50;2.30;;;4.70;99.90;;;;;;5064837;28;20557;-56
2022/02/05 08:10:46;;;;;;;2.28;2.08;;;4.90;99.90;;;;;;5066074;28;20243;-56
2022/02/05 08:13:12;;;;;;;2.22;2.03;;;4.80;99.90;;;;;;5062908;28;20216;-57
2022/02/05 08:15:38;;;;;;;4.10;2.23;;;4.70;99.90;;;;;;5059794;28;20259;-55
2022/02/05 08:18:04;;;;;;;3.60;2.53;;;4.90;99.90;;;;;;5059186;28;20435;-56
2022/02/05 08:20:30;;;;;;;2.37;2.07;;;4.90;99.90;;;;;;5060340;28;20450;-62
2022/02/05 08:22:55;;;;;;;4.50;2.23;;;4.70;99.90;;;;;;5064857;28;20537;-58
2022/02/05 08:25:21;;;;;;;2.47;2.00;;;4.70;99.90;;;;;;5062292;28;20214;-58
2022/02/05 08:27:47;;;;;;;3.57;2.40;;;4.90;99.90;;;;;;5063044;28;20205;-59
2022/02/05 08:30:14;;;;;;;2.20;2.00;;;5.00;99.90;;;;;;5062717;28;20667;-58
2022/02/05 08:32:42;;;;;;;1.95;1.75;;;4.80;99.90;;;;;;5064477;28;20198;-54
2022/02/05 08:35:08;;;;;;;2.15;1.95;;;4.90;99.90;;;;;;5067779;28;20224;-56
2022/02/05 08:37:40;;;;;;;3.97;2.00;;;5.10;99.90;;;;;;5061138;28;20185;-63
2022/02/05 08:40:07;;;;;;;2.20;2.00;;;4.90;99.90;;;;;;5063936;28;20738;-61
2022/02/05 08:42:33;;;;;;;2.45;1.80;;;5.00;99.90;;;;;;5066927;28;20632;-59
2022/02/05 08:44:59;;;;;;;3.90;2.30;;;5.40;99.90;;;;;;5060770;28;20214;-58
2022/02/05 08:47:25;;;;;;;5.53;2.47;;;5.20;99.90;;;;;;5053287;28;21444;-61
2022/02/05 08:49:55;;;;;;;2.43;1.60;;;5.30;99.90;;;;;;5061214;28;21007;-56
2022/02/05 08:52:22;;;;;;;3.28;2.35;;;5.40;99.90;;;;;;5059580;28;20324;-59
2022/02/05 08:54:47;;;;;;;3.65;2.00;;;5.50;99.90;;;;;;5054846;28;20194;-58
2022/02/05 08:57:13;;;;;;;2.83;1.83;;;5.60;99.90;;;;;;5052994;28;20209;-57
2022/02/05 09:02:47;;;;;;;3.35;2.78;;;5.60;99.90;;;;;;5063894;28;20822;-58
2022/02/05 09:05:15;;;;;;;1.77;1.38;;;5.70;99.90;;;;;;5053327;28;20208;-58
2022/02/05 09:07:42;;;;;;;2.42;2.15;;;5.90;99.90;;;;;;5064814;28;20535;-56
2022/02/05 09:15:37;;;;;;;5.97;1.70;;;6.10;99.90;;;;;;5055594;28;20211;-65
2022/02/05 09:18:03;;;;;;;2.58;1.73;;;7.00;99.90;;;;;;5058702;28;20188;-58
2022/02/05 09:20:29;;;;;;;2.63;1.30;;;7.40;98.50;;;;;;5061122;28;20181;-58
2022/02/05 09:22:56;;;;;;;2.60;2.13;;;8.20;97.60;;;;;;5063823;28;20284;-62
2022/02/05 09:25:22;;;;;;;1.95;1.58;;;8.50;96.10;;;;;;5055445;28;20210;-66
2022/02/05 09:27:49;;;;;;;1.80;1.50;;;9.50;94.50;;;;;;5062595;28;20173;-66
2022/02/05 09:30:17;;;;;;;3.85;1.92;;;9.70;93.10;;;;;;5061663;28;20193;-63
2022/02/05 09:32:44;;;;;;;4.25;2.10;;;11.00;91.20;;;;;;5059041;28;20236;-60
2022/02/05 09:35:11;;;;;;;2.97;1.70;;;12.00;87.80;;;;;;5056937;28;20202;-60
2022/02/05 09:37:37;;;;;;;3.75;1.88;;;12.20;83.30;;;;;;5067930;28;20172;-60
2022/02/05 09:40:04;;;;;;;3.80;1.90;;;12.10;82.50;;;;;;5061989;28;20191;-62
2022/02/05 09:42:30;;;;;;;3.92;1.80;;;12.30;82.40;;;;;;5068157;28;20482;-68
2022/02/05 09:45:03;;;;;;;1.77;1.47;;;12.20;81.50;;;;;;5063604;28;20228;-60
2022/02/05 09:47:28;;;;;;;2.15;1.60;;;12.70;80.70;;;;;;5060326;28;20520;-61
2022/02/05 09:49:54;;;;;;;2.20;1.83;;;12.70;80.40;;;;;;5060533;28;20185;-59
2022/02/05 09:52:24;;;;;;;4.17;1.90;;;12.60;80.20;;;;;;5064599;28;20173;-58
2022/02/05 09:54:50;;;;;;;2.55;1.70;;;12.70;79.40;;;;;;5059122;28;20494;-59
2022/02/05 09:57:18;;;;;;;3.65;1.40;;;12.80;77.30;;;;;;5062802;28;20173;-63
2022/02/05 09:59:53;;;;;;;3.63;1.67;;;12.20;77.50;;;;;;5070849;28;20275;-60
2022/02/05 10:02:25;;;;;;;4.40;1.65;;;11.80;78.50;;;;;;5057430;28;20244;-59
2022/02/05 10:05:09;;;;;;;1.60;1.40;;;11.00;81.70;;;;;;5056357;28;20196;-60
2022/02/05 10:07:50;;;;;;;5.60;1.60;;;10.60;82.90;;;;;;5059001;28;20207;-61
2022/02/05 10:10:15;;;;;;;2.13;1.30;;;10.50;82.80;;;;;;5064829;28;20202;-61
2022/02/05 10:12:41;;;;;;;3.93;2.07;;;10.50;84.10;;;;;;5061116;28;20185;-61
2022/02/05 10:15:07;;;;;;;2.93;1.67;;;10.10;86.00;;;;;;5059559;28;20709;-61
2022/02/05 10:17:42;;;;;;;2.00;1.40;;;10.50;85.50;;;;;;5050609;28;20651;-61
2022/02/05 10:20:08;;;;;;;5.50;2.30;;;10.70;84.50;;;;;;5057529;28;20177;-60
2022/02/05 10:22:39;;;;;;;4.07;1.80;;;11.30;82.10;;;;;;5055680;28;20181;-57
2022/02/05 10:25:24;;;;;;;2.58;1.50;;;11.60;81.10;;;;;;5060444;28;20242;-58
2022/02/05 10:27:50;;;;;;;1.88;1.30;;;12.70;78.80;;;;;;5065115;28;20185;-58
2022/02/05 10:30:31;;;;;;;4.50;1.40;;;12.20;76.90;;;;;;5064809;28;20195;-58
2022/02/05 10:33:20;;;;;;;2.47;1.45;;;12.40;76.50;;;;;;5053310;28;20559;-58
2022/02/05 10:43:53;;;;;;;3.03;1.30;;;12.20;77.60;;;;;;5068368;28;20267;-59
2022/02/05 10:46:20;;;;;;;3.80;1.60;;;13.10;75.50;;;;;;5062869;28;20556;-58
2022/02/05 10:48:46;;;;;;;1.60;1.27;;;13.50;73.80;;;;;;5057590;28;20301;-58
2022/02/05 10:51:13;;;;;;;2.50;1.87;;;13.10;72.60;;;;;;5071169;28;20761;-59
2022/02/05 10:58:59;;;;;;;2.03;1.20;;;13.80;70.80;;;;;;5054700;28;20177;-58
2022/02/05 11:07:03;;;;;;;2.53;1.15;;;13.80;69.80;;;;;;5064959;28;20241;-58
2022/02/05 11:09:28;;;;;;;1.73;0.95;;;14.10;68.90;;;;;;5061883;28;20181;-58
2022/02/05 11:18:31;;;;;;;5.10;1.30;;;13.70;68.50;;;;;;5052821;28;20181;-60
2022/02/05 11:20:57;;;;;;;1.63;1.45;;;14.10;66.50;;;;;;5033784;28;20204;-60
2022/02/05 11:23:26;;;;;;;4.05;1.20;;;14.10;67.60;;;;;;5063604;28;20676;-60
2022/02/05 11:25:52;;;;;;;4.35;1.75;;;15.10;64.40;;;;;;5056698;28;20284;-60
2022/02/05 11:28:47;;;;;;;5.60;1.75;;;14.60;63.80;;;;;;5058416;28;20272;-61
2022/02/05 11:34:15;;;;;;;3.42;1.48;;;14.10;66.00;;;;;;5050862;28;20646;-60
2022/02/05 11:36:45;;;;;;;2.85;1.50;;;14.30;64.20;;;;;;5069138;28;20305;-60
2022/02/05 11:39:17;;;;;;;2.50;1.27;;;14.00;64.70;;;;;;5065454;28;20273;-60
2022/02/05 11:41:44;;;;;;;1.65;1.20;;;14.30;64.40;;;;;;5071184;28;20262;-60
2022/02/05 11:44:29;;;;;;;2.45;1.10;;;14.10;62.70;;;;;;5055660;28;20531;-60
2022/02/05 11:47:03;;;;;;;1.45;1.08;;;13.70;63.30;;;;;;5057786;28;20189;-61
2022/02/05 11:49:51;;;;;;;2.25;1.30;;;13.20;66.10;;;;;;5068793;28;20694;-60
2022/02/05 11:52:35;;;;;;;2.72;1.30;;;12.60;65.90;;;;;;5063567;28;20200;-60
2022/02/05 11:55:03;;;;;;;2.10;1.10;;;12.20;67.10;;;;;;5055676;28;20207;-61
2022/02/05 11:57:45;;;;;;;3.55;1.30;;;12.90;66.60;;;;;;5060985;28;20225;-60
2022/02/05 12:00:22;;;;;;;2.22;1.27;;;12.60;66.40;;;;;;5061348;28;20216;-60
2022/02/05 12:03:04;;;;;;;4.78;1.10;;;12.10;66.00;;;;;;5063445;28;20230;-60
2022/02/05 12:05:35;;;;;;;1.77;0.93;;;11.80;66.60;;;;;;5059593;28;20291;-60
2022/02/05 12:08:12;;;;;;;0.90;0.70;;;11.60;67.40;;;;;;5061540;28;20195;-60
2022/02/05 12:10:46;;;;;;;2.38;0.90;;;11.30;67.60;;;;;;5068632;28;20182;-60
2022/02/05 12:13:23;;;;;;;1.83;1.05;;;11.30;67.80;;;;;;5061573;28;20515;-60
2022/02/05 12:15:55;;;;;;;6.40;1.35;;;11.40;68.50;;;;;;5063745;28;20255;-59
2022/02/05 12:23:53;;;;;;;2.25;1.17;;;10.70;69.40;;;;;;5068942;28;20656;-60
2022/02/05 12:26:20;;;;;;;2.30;1.20;;;10.70;69.20;;;;;;5063323;28;20268;-60
2022/02/05 12:28:50;;;;;;;1.63;1.25;;;10.70;68.00;;;;;;5073373;28;20200;-60
2022/02/05 12:31:25;;;;;;;1.35;1.25;;;10.50;67.80;;;;;;5071968;28;20584;-60
2022/02/05 12:34:14;;;;;;;1.80;1.10;;;10.70;69.50;;;;;;5059093;28;20613;-60
2022/02/05 12:36:48;;;;;;;3.22;1.15;;;10.90;69.50;;;;;;5065186;28;20682;-60
2022/02/05 12:39:28;;;;;;;2.63;0.95;;;10.80;70.70;;;;;;5057893;28;20175;-60
2022/02/05 12:41:58;;;;;;;2.13;1.00;;;11.00;69.30;;;;;;5066203;28;20173;-60
2022/02/05 12:44:27;;;;;;;2.05;1.02;;;10.70;68.70;;;;;;5063266;28;20193;-60
2022/02/05 12:46:59;;;;;;;3.20;1.25;;;10.90;69.50;;;;;;5062282;28;20701;-60
2022/02/05 12:52:09;;;;;;;2.75;1.02;;;11.10;71.10;;;;;;5058650;28;20659;-59
2022/02/05 12:54:44;;;;;;;2.83;1.73;;;10.70;69.80;;;;;;5066765;28;20241;-60
2022/02/05 12:57:18;;;;;;;2.88;1.00;;;10.90;70.90;;;;;;5063455;28;20510;-60
2022/02/05 12:59:44;;;;;;;1.55;1.30;;;10.80;70.80;;;;;;5063446;28;20181;-60
2022/02/05 13:02:12;;;;;;;2.00;1.35;;;10.90;70.70;;;;;;5060889;28;20676;-60
2022/02/05 13:04:40;;;;;;;1.55;1.20;;;10.90;69.30;;;;;;5062552;28;20226;-60
2022/02/05 13:07:10;;;;;;;2.28;1.10;;;10.50;70.20;;;;;;5059267;28;20605;-60
2022/02/05 13:09:44;;;;;;;4.00;1.48;;;10.70;70.40;;;;;;5055010;28;20239;-60
2022/02/05 13:12:12;;;;;;;3.63;1.08;;;10.80;69.90;;;;;;5066263;28;20189;-60
2022/02/05 13:14:53;;;;;;;1.38;0.90;;;10.60;70.20;;;;;;5059061;28;20249;-60
2022/02/05 13:17:23;;;;;;;1.70;1.10;;;10.10;69.60;;;;;;5056385;28;20676;-60
2022/02/05 13:36:36;;;;;;;1.90;1.63;;;10.50;73.70;;;;;;5062272;28;20256;-60
2022/02/05 13:41:55;;;;;;;2.60;1.13;;;10.30;71.40;;;;;;5056782;28;20249;-60
2022/02/05 13:44:23;;;;;;;3.38;1.45;;;10.30;70.80;;;;;;5059931;28;20222;-60
2022/02/05 13:47:03;;;;;;;2.85;1.20;;;10.40;72.00;;;;;;5063162;28;20250;-60
2022/02/05 13:49:29;;;;;;;1.95;0.95;;;10.00;72.60;;;;;;5062490;28;20276;-60
2022/02/05 13:51:55;;;;;;;2.35;1.20;;;10.10;73.50;;;;;;5064149;28;20653;-60
2022/02/05 13:54:33;;;;;;;1.23;1.13;;;10.10;71.90;;;;;;5066189;28;20231;-60
2022/02/05 13:57:00;;;;;;;2.63;1.20;;;10.20;72.20;;;;;;5054866;28;20526;-60
2022/02/05 13:59:25;;;;;;;1.40;1.30;;;10.10;71.80;;;;;;5059877;28;20641;-60
2022/02/05 14:01:51;;;;;;;2.60;0.90;;;10.40;73.40;;;;;;5061102;28;20189;-59
2022/02/05 14:04:25;;;;;;;5.00;1.13;;;9.90;73.80;;;;;;5062099;28;20197;-59
2022/02/05 14:06:57;;;;;;;3.15;1.00;;;9.90;75.00;;;;;;5063400;28;20181;-59
2022/02/05 14:09:27;;;;;;;2.13;1.15;;;9.70;75.40;;;;;;5055281;28;20193;-59
2022/02/05 14:11:53;;;;;;;1.42;1.00;;;9.60;75.50;;;;;;5053018;28;20258;-59
2022/02/05 14:14:36;;;;;;;1.98;1.23;;;9.80;75.80;;;;;;5053201;28;20214;-59
2022/02/05 14:17:02;;;;;;;1.58;1.23;;;9.80;76.70;;;;;;5049830;28;20216;-59
2022/02/05 14:19:29;;;;;;;1.90;1.03;;;10.00;75.70;;;;;;5060485;28;21565;-60
2022/02/05 14:21:57;;;;;;;1.65;1.05;;;9.90;77.30;;;;;;5059606;28;20177;-60
2022/02/05 14:24:26;;;;;;;2.88;1.45;;;9.90;77.40;;;;;;5064123;28;20205;-59
2022/02/05 14:29:22;;;;;;;1.73;1.63;;;9.60;77.00;;;;;;5070489;28;20199;-60
2022/02/05 14:31:55;;;;;;;2.47;1.30;;;9.90;78.00;;;;;;5067834;28;20615;-59
2022/02/05 14:40:41;;;;;;;3.85;1.30;;;9.80;76.10;;;;;;5024507;28;20208;-61
2022/02/05 14:43:07;;;;;;;2.15;1.23;;;9.70;76.80;;;;;;5026575;28;20213;-60
2022/02/05 14:45:33;;;;;;;2.10;1.40;;;9.30;76.30;;;;;;5040621;28;20305;-61
2022/02/05 14:47:59;;;;;;;2.60;1.15;;;9.60;76.80;;;;;;5057630;28;20193;-61
2022/02/05 14:50:25;;;;;;;7.60;5.10;;;9.50;75.80;;;;;;5063068;28;20243;-60
2022/02/05 14:52:50;;;;;;;3.90;1.30;;;9.40;75.40;;;;;;5067431;28;20189;-61
2022/02/05 14:55:18;;;;;;;1.00;0.90;;;9.40;74.80;;;;;;5068637;28;20219;-60
2022/02/05 14:57:45;;;;;;;2.60;1.10;;;9.10;74.90;;;;;;5063247;28;20182;-61
2022/02/05 15:00:11;;;;;;;2.45;0.88;;;9.10;75.20;;;;;;5055988;28;20520;-60
2022/02/05 15:02:37;;;;;;;2.05;1.00;;;9.10;74.70;;;;;;5057856;28;20180;-61
2022/02/05 15:05:09;;;;;;;1.37;1.20;;;9.10;75.90;;;;;;5066210;28;20682;-61
2022/02/05 15:07:35;;;;;;;1.33;0.90;;;9.00;76.70;;;;;;5058726;28;20432;-60
2022/02/05 15:10:01;;;;;;;1.07;0.90;;;8.90;76.40;;;;;;5062263;28;20214;-60
2022/02/05 15:12:27;;;;;;;2.23;1.23;;;9.10;77.20;;;;;;5061792;28;20413;-61
2022/02/05 15:14:52;;;;;;;1.90;1.33;;;8.90;77.50;;;;;;5059676;28;20227;-60
2022/02/05 15:17:18;;;;;;;4.10;1.30;;;8.80;78.00;;;;;;5058170;28;20213;-60
2022/02/05 15:19:43;;;;;;;1.57;1.10;;;8.80;78.80;;;;;;5043035;28;20185;-61
2022/02/05 15:22:09;;;;;;;3.77;1.47;;;8.60;77.90;;;;;;5065365;28;20193;-60
2022/02/05 15:24:35;;;;;;;1.93;1.10;;;8.80;78.80;;;;;;5062110;28;20255;-60
2022/02/05 15:27:02;;;;;;;1.63;1.20;;;8.60;79.30;;;;;;5059801;28;20207;-60
2022/02/05 15:29:27;;;;;;;2.92;1.45;;;8.60;79.20;;;;;;5066768;28;20208;-60
2022/02/05 15:31:53;;;;;;;1.30;1.00;;;8.50;79.00;;;;;;5062998;28;20216;-61
2022/02/05 15:34:19;;;;;;;3.90;1.33;;;8.60;80.30;;;;;;5059308;28;20209;-62
2022/02/05 15:36:55;;;;;;;1.20;0.97;;;8.60;79.70;;;;;;5061090;28;20449;-60
2022/02/05 15:39:44;;;;;;;1.55;1.45;;;8.30;80.40;;;;;;5064187;28;20208;-60
2022/02/05 15:44:54;;;;;;;3.17;1.30;;;8.20;80.80;;;;;;5062515;28;20279;-61
2022/02/05 15:47:19;;;;;;;2.30;1.43;;;8.50;81.20;;;;;;5049284;28;20650;-60
2022/02/05 15:49:45;;;;;;;3.27;1.47;;;8.20;81.20;;;;;;5060281;28;20307;-61
2022/02/05 15:52:13;;;;;;;2.57;1.30;;;8.20;81.70;;;;;;5064050;28;20461;-60
2022/02/05 15:54:39;;;;;;;2.80;2.15;;;8.20;82.30;;;;;;5059895;28;20212;-59
2022/02/05 15:58:00;;;;;;;2.53;1.50;;;8.30;83.50;;;;;;5061516;28;20623;-61
2022/02/05 16:02:16;;;;;;;4.40;1.37;;;8.00;82.40;;;;;;5056040;28;20189;-59
2022/02/05 16:04:42;;;;;;;1.20;1.10;;;8.10;83.80;;;;;;5061238;28;20205;-59
2022/02/05 16:07:07;;;;;;;1.90;1.50;;;7.70;83.50;;;;;;5061536;28;20216;-59
2022/02/05 16:09:33;;;;;;;4.00;1.70;;;8.00;84.20;;;;;;5057462;28;20371;-59
2022/02/05 16:11:59;;;;;;;2.47;1.63;;;7.80;83.90;;;;;;5063191;28;20192;-60
2022/02/05 16:14:25;;;;;;;2.70;1.50;;;7.70;84.10;;;;;;5053979;28;20475;-59
2022/02/05 16:16:50;;;;;;;3.50;1.83;;;7.50;84.70;;;;;;5060384;28;20213;-59
2022/02/05 16:19:16;;;;;;;2.07;1.70;;;7.50;85.90;;;;;;5064866;28;20180;-60
2022/02/05 16:21:41;;;;;;;4.33;2.23;;;7.60;86.40;;;;;;5067172;28;20820;-60
2022/02/05 16:24:07;;;;;;;1.93;1.47;;;7.70;86.80;;;;;;5060824;28;20205;-60
2022/02/05 16:26:34;;;;;;;1.23;1.10;;;7.30;86.10;;;;;;5067552;28;20196;-60
2022/02/05 16:29:00;;;;;;;3.38;1.73;;;7.30;86.60;;;;;;5064475;28;20187;-59
2022/02/05 16:31:25;;;;;;;1.90;1.50;;;7.30;87.00;;;;;;5069884;28;20189;-59
2022/02/05 16:33:53;;;;;;;3.80;1.90;;;7.00;86.70;;;;;;5061845;28;20516;-59
2022/02/05 16:36:26;;;;;;;3.47;1.55;;;6.70;86.40;;;;;;5071061;28;20468;-59
2022/02/05 16:38:57;;;;;;;2.13;1.35;;;7.50;87.60;;;;;;5061111;28;20744;-59
2022/02/05 16:41:23;;;;;;;2.03;1.40;;;7.40;87.60;;;;;;5066420;28;20199;-59
2022/02/05 16:43:49;;;;;;;2.87;1.60;;;7.30;87.90;;;;;;5069537;28;20193;-59